.
WxDataArchive / Data Records for 2015-02-20
2015-02-19 February 2015 2015-02-21

Data Records for Friday, 20 February 2015

Time	Temp	Chill	HIndex	Humid	Dewpt	 Wind 	HiWind	WindDir	Rain 	Barom
-----	----	-----	------	-----	-----	------	------	-------	-----	-----
00:00	1.3	1.3	1.3	58	-10.0	1	2	248	0.00	30.413 
00:05	1.1	1.1	1.1	59	-9.8	0	2	248	0.00	30.413 
00:10	1.1	1.1	1.1	60	-9.5	1	2	248	0.00	30.413 
00:15	1.1	1.1	1.1	60	-9.5	1	3	248	0.00	30.415 
00:20	0.9	0.9	0.9	60	-9.7	1	3	248	0.00	30.415 
00:25	0.9	0.9	0.9	61	-9.4	1	3	248	0.00	30.415 
00:30	0.9	0.9	0.9	61	-9.4	1	4	315	0.00	30.417 
00:35	0.9	0.9	0.9	62	-9.0	0	2	315	0.00	30.417 
00:40	0.9	0.9	0.9	63	-8.7	0	2	315	0.00	30.417 
00:45	0.7	0.7	0.7	63	-8.9	1	2	315	0.00	30.415 
00:50	0.7	0.7	0.7	64	-8.6	0	2	315	0.00	30.415 
00:55	0.5	0.5	0.5	65	-8.5	1	3	248	0.00	30.415 
01:00	0.5	0.5	0.5	65	-8.5	0	2	248	0.00	30.423 
01:05	0.5	0.5	0.5	66	-8.1	0	2	248	0.00	30.423 
01:10	0.5	0.5	0.5	66	-8.1	0	2	248	0.00	30.423 
01:15	0.3	0.3	0.3	66	-8.3	0	2	248	0.00	30.424 
01:20	0.3	0.3	0.3	67	-8.0	0	2	248	0.00	30.424 
01:25	0.3	0.3	0.3	67	-8.0	0	2	248	0.00	30.424 
01:30	0.3	0.3	0.3	67	-8.0	0	1	248	0.00	30.427 
01:35	0.3	0.3	0.3	67	-8.0	0	1	248	0.00	30.427 
01:40	0.5	0.5	0.5	67	-7.8	0	1	248	0.00	30.427 
01:45	0.5	0.5	0.5	67	-7.8	0	2	248	0.00	30.424 
01:50	0.5	0.5	0.5	67	-7.8	0	2	248	0.00	30.424 
01:55	0.5	0.5	0.5	67	-7.8	0	1	248	0.00	30.424 
02:00	0.3	0.3	0.3	67	-8.0	0	1	248	0.00	30.425 
02:05	0.3	0.3	0.3	67	-8.0	0	1	248	0.00	30.425 
02:10	0.3	0.3	0.3	67	-8.0	0	1	248	0.00	30.425 
02:15	0.3	0.3	0.3	67	-8.0	0	0	---	0.00	30.424 
02:20	0.1	0.1	0.1	67	-8.2	0	1	248	0.00	30.424 
02:25	0.1	0.1	0.1	68	-7.9	0	0	---	0.00	30.424 
02:30	0.1	0.1	0.1	68	-7.9	0	1	248	0.00	30.425 
02:35	0.1	0.1	0.1	68	-7.9	0	1	248	0.00	30.425 
02:40	0.1	0.1	0.1	68	-7.9	0	1	248	0.00	30.425 
02:45	0.1	0.1	0.1	68	-7.9	0	1	248	0.00	30.426 
02:50	0.0	0.0	0.0	68	-8.0	0	0	---	0.00	30.426 
02:55	0.0	0.0	0.0	68	-8.0	0	0	---	0.00	30.426 
03:00	0.0	0.0	0.0	68	-8.0	0	0	---	0.00	30.424 
03:05	-0.2	-0.2	-0.2	68	-8.2	0	0	---	0.00	30.424 
03:10	-0.2	-0.2	-0.2	68	-8.2	0	1	248	0.00	30.424 
03:15	-0.2	-0.2	-0.2	68	-8.2	0	0	---	0.00	30.429 
03:20	-0.2	-0.2	-0.2	68	-8.2	0	0	---	0.00	30.429 
03:25	-0.2	-0.2	-0.2	68	-8.2	0	0	---	0.00	30.429 
03:30	-0.2	-0.2	-0.2	68	-8.2	0	0	---	0.00	30.425 
03:35	-0.4	-0.4	-0.4	68	-8.4	0	0	---	0.00	30.425 
03:40	-0.4	-0.4	-0.4	69	-8.1	0	0	---	0.00	30.425 
03:45	-0.6	-0.6	-0.6	69	-8.3	0	0	---	0.00	30.419 
03:50	-0.6	-0.6	-0.6	69	-8.3	0	0	---	0.00	30.419 
03:55	-0.8	-0.8	-0.8	69	-8.5	0	0	---	0.00	30.419 
04:00	-1.0	-1.0	-1.0	69	-8.7	0	0	---	0.00	30.415 
04:05	-1.2	-1.2	-1.2	69	-8.9	0	0	---	0.00	30.415 
04:10	-1.2	-1.2	-1.2	69	-8.9	0	0	---	0.00	30.415 
04:15	-1.4	-1.4	-1.4	69	-9.1	0	0	---	0.00	30.416 
04:20	-1.6	-1.6	-1.6	69	-9.3	0	0	---	0.00	30.416 
04:25	-1.8	-1.8	-1.8	69	-9.4	0	0	---	0.00	30.416 
04:30	-1.8	-1.8	-1.8	69	-9.4	0	0	---	0.00	30.418 
04:35	-2.0	-2.0	-2.0	70	-9.3	0	0	---	0.00	30.418 
04:40	-2.2	-2.2	-2.2	70	-9.5	0	0	---	0.00	30.418 
04:45	-2.4	-2.4	-2.4	70	-9.7	0	0	---	0.00	30.417 
04:50	-2.6	-2.6	-2.6	70	-9.9	0	0	---	0.00	30.417 
04:55	-2.8	-2.8	-2.8	71	-9.8	0	0	---	0.00	30.417 
05:00	-2.8	-2.8	-2.8	71	-9.8	0	0	---	0.00	30.421 
05:05	-3.1	-3.1	-3.1	71	-10.1	0	0	---	0.00	30.421 
05:10	-3.1	-3.1	-3.1	71	-10.1	0	0	---	0.00	30.421 
05:15	-3.1	-3.1	-3.1	72	-9.8	0	0	---	0.00	30.430 
05:20	-3.1	-3.1	-3.1	72	-9.8	0	0	---	0.00	30.430 
05:25	-2.8	-2.8	-2.8	72	-9.5	0	0	---	0.00	30.430 
05:30	-2.8	-2.8	-2.8	73	-9.3	0	0	---	0.00	30.434 
05:35	-2.8	-2.8	-2.8	73	-9.3	0	0	---	0.00	30.434 
05:40	-2.8	-2.8	-2.8	73	-9.3	0	0	---	0.00	30.434 
05:45	-2.8	-2.8	-2.8	73	-9.3	0	0	---	0.00	30.436 
05:50	-2.8	-2.8	-2.8	73	-9.3	0	0	---	0.00	30.436 
05:55	-2.8	-2.8	-2.8	73	-9.3	0	0	---	0.00	30.436 
06:00	-3.1	-3.1	-3.1	73	-9.6	0	0	---	0.00	30.436 
06:05	-3.1	-3.1	-3.1	73	-9.6	0	1	248	0.00	30.436 
06:10	-3.1	-3.1	-3.1	73	-9.6	0	0	---	0.00	30.436 
06:15	-3.1	-3.1	-3.1	73	-9.6	0	0	---	0.00	30.434 
06:20	-3.3	-3.3	-3.3	73	-9.8	0	0	---	0.00	30.434 
06:25	-3.3	-3.3	-3.3	73	-9.8	0	0	---	0.00	30.434 
06:30	-3.5	-3.5	-3.5	72	-10.2	0	0	---	0.00	30.433 
06:35	-3.7	-3.7	-3.7	72	-10.4	0	0	---	0.00	30.433 
06:40	-3.9	-3.9	-3.9	72	-10.6	0	0	---	0.00	30.433 
06:45	-3.9	-3.9	-3.9	72	-10.6	0	0	---	0.00	30.430 
06:50	-3.9	-3.9	-3.9	72	-10.6	0	0	---	0.00	30.430 
06:55	-4.1	-4.1	-4.1	72	-10.8	0	0	---	0.00	30.430 
07:00	-4.3	-4.3	-4.3	72	-11.0	0	0	---	0.00	30.430 
07:05	-4.3	-4.3	-4.3	72	-11.0	0	0	---	0.00	30.430 
07:10	-4.3	-4.3	-4.3	72	-11.0	0	0	---	0.00	30.430 
07:15	-4.6	-4.6	-4.6	72	-11.3	0	0	---	0.00	30.429 
07:20	-4.6	-4.6	-4.6	72	-11.3	0	0	---	0.00	30.429 
07:25	-4.8	-4.8	-4.8	72	-11.5	0	0	---	0.00	30.429 
07:30	-4.8	-4.8	-4.8	72	-11.5	0	0	---	0.00	30.432 
07:35	-5.0	-5.0	-5.0	72	-11.7	0	0	---	0.00	30.432 
07:40	-5.0	-5.0	-5.0	72	-11.7	0	0	---	0.00	30.432 
07:45	-4.8	-4.8	-4.8	72	-11.5	0	0	---	0.00	30.432 
07:50	-4.6	-4.6	-4.6	72	-11.3	0	0	---	0.00	30.432 
07:55	-4.3	-4.3	-4.3	72	-11.0	0	1	248	0.00	30.432 
08:00	-4.1	-4.1	-4.1	72	-10.8	0	0	---	0.00	30.425 
08:05	-3.7	-3.7	-3.7	72	-10.4	0	1	248	0.00	30.425 
08:10	-3.5	-3.5	-3.5	71	-10.5	0	1	248	0.00	30.425 
08:15	-3.1	-3.1	-3.1	71	-10.1	0	1	248	0.00	30.424 
08:20	-2.6	-2.6	-2.6	70	-9.9	0	1	248	0.00	30.424 
08:25	-2.0	-2.0	-2.0	69	-9.6	0	1	248	0.00	30.424 
08:30	-1.4	-1.4	-1.4	68	-9.4	0	1	248	0.00	30.420 
08:35	-0.8	-0.8	-0.8	67	-9.1	0	1	248	0.00	30.420 
08:40	-0.2	-0.2	-0.2	66	-8.8	0	1	248	0.00	30.420 
08:45	0.0	0.0	0.0	64	-9.2	0	2	248	0.00	30.429 
08:50	0.1	0.1	0.1	63	-9.5	0	2	248	0.00	30.429 
08:55	0.1	0.1	0.1	62	-9.8	0	2	248	0.00	30.429 
09:00	0.3	0.3	0.3	62	-9.6	0	1	248	0.00	30.423 
09:05	0.7	0.7	0.7	62	-9.2	0	2	248	0.00	30.423 
09:10	1.3	1.3	1.3	61	-9.0	0	2	248	0.00	30.423 
09:15	1.7	1.7	1.7	60	-8.9	0	2	248	0.00	30.422 
09:20	2.2	2.2	2.2	58	-9.1	0	2	248	0.00	30.422 
09:25	2.8	2.8	2.8	58	-8.6	0	2	248	0.00	30.422 
09:30	3.4	3.4	3.4	58	-8.0	0	2	248	0.00	30.424 
09:35	4.1	4.1	4.1	56	-8.1	0	2	248	0.00	30.424 
09:40	4.3	4.3	4.3	55	-8.2	0	3	248	0.00	30.424 
09:45	4.5	4.5	4.5	54	-8.4	0	2	248	0.00	30.420 
09:50	5.0	5.0	5.0	53	-8.3	0	2	202	0.00	30.420 
09:55	5.6	5.6	5.6	52	-8.2	0	2	202	0.00	30.420 
10:00	6.0	6.0	6.0	51	-8.2	0	2	202	0.00	30.420 
10:05	6.3	6.3	6.3	50	-8.3	0	2	112	0.00	30.420 
10:10	6.7	6.7	6.7	48	-8.8	1	5	112	0.00	30.420 
10:15	6.7	6.7	6.7	48	-8.8	2	6	90	0.00	30.412 
10:20	6.5	6.5	6.5	48	-9.0	2	7	90	0.00	30.412 
10:25	6.5	6.5	6.5	48	-9.0	1	6	90	0.00	30.412 
10:30	6.5	6.5	6.5	49	-8.5	1	4	112	0.00	30.418 
10:35	6.7	6.7	6.7	49	-8.4	1	6	90	0.00	30.418 
10:40	6.9	6.9	6.9	50	-7.8	1	4	112	0.00	30.418 
10:45	7.2	7.2	7.2	50	-7.5	1	4	90	0.00	30.411 
10:50	7.4	7.4	7.4	50	-7.3	0	5	90	0.00	30.411 
10:55	7.9	7.9	7.9	50	-6.8	0	3	112	0.00	30.411 
11:00	8.1	8.1	8.1	49	-7.1	1	7	112	0.00	30.410 
11:05	8.1	8.1	8.1	48	-7.5	2	6	90	0.00	30.410 
11:10	7.9	7.9	7.9	48	-7.7	3	9	90	0.00	30.410 
11:15	8.1	8.1	8.1	48	-7.5	3	7	112	0.00	30.402 
11:20	8.3	8.3	8.3	48	-7.3	3	8	112	0.00	30.402 
11:25	8.6	8.6	8.6	49	-6.6	2	5	112	0.00	30.402 
11:30	8.8	8.8	8.8	49	-6.4	2	7	68	0.00	30.407 
11:35	9.0	9.0	9.0	50	-5.8	1	4	68	0.00	30.407 
11:40	9.5	9.5	9.5	50	-5.3	1	2	68	0.00	30.407 
11:45	9.5	9.5	9.5	48	-6.2	3	8	90	0.00	30.400 
11:50	9.5	9.5	9.5	48	-6.2	2	5	90	0.00	30.400 
11:55	9.5	9.5	9.5	49	-5.8	2	6	90	0.00	30.400 
12:00	10.0	10.0	10.0	50	-4.9	1	4	68	0.00	30.396 
12:05	10.5	10.5	10.5	48	-5.3	2	10	90	0.00	30.396 
12:10	10.7	10.7	10.7	49	-4.7	2	7	90	0.00	30.396 
12:15	10.7	10.7	10.7	47	-5.5	3	7	90	0.00	30.383 
12:20	10.7	10.7	10.7	47	-5.5	3	7	68	0.00	30.383 
12:25	11.2	11.2	11.2	48	-4.6	2	6	112	0.00	30.383 
12:30	11.7	11.7	11.7	48	-4.2	2	4	90	0.00	30.374 
12:35	12.4	12.4	12.4	46	-4.4	1	6	90	0.00	30.374 
12:40	12.4	12.4	12.4	46	-4.4	2	6	90	0.00	30.374 
12:45	12.4	12.4	12.4	46	-4.4	3	7	112	0.00	30.368 
12:50	12.3	12.3	12.3	45	-4.9	3	7	90	0.00	30.368 
12:55	12.3	12.3	12.3	46	-4.5	3	9	90	0.00	30.368 
13:00	12.6	12.6	12.6	46	-4.2	2	6	90	0.00	30.354 
13:05	12.6	12.6	12.6	47	-3.8	2	6	90	0.00	30.354 
13:10	12.6	12.6	12.6	46	-4.2	3	8	90	0.00	30.354 
13:15	12.6	12.6	12.6	46	-4.2	3	11	90	0.00	30.343 
13:20	12.9	12.9	12.9	47	-3.5	2	5	112	0.00	30.343 
13:25	12.9	12.9	12.9	45	-4.4	3	7	90	0.00	30.343 
13:30	12.9	12.9	12.9	46	-3.9	2	6	90	0.00	30.338 
13:35	12.9	12.9	12.9	46	-3.9	2	9	90	0.00	30.338 
13:40	13.3	13.3	13.3	47	-3.1	2	6	68	0.00	30.338 
13:45	13.3	13.3	13.3	47	-3.1	2	7	90	0.00	30.325 
13:50	13.5	13.5	13.5	47	-2.9	2	9	90	0.00	30.325 
13:55	13.6	13.6	13.6	46	-3.3	1	4	90	0.00	30.325 
14:00	14.0	14.0	14.0	46	-2.9	0	4	270	0.00	30.322 
14:05	14.3	14.3	14.3	44	-3.6	2	9	270	0.00	30.322 
14:10	14.1	14.1	14.1	45	-3.3	2	10	90	0.00	30.322 
14:15	14.3	14.3	14.3	44	-3.6	2	9	90	0.00	30.312 
14:20	14.3	14.3	14.3	45	-3.1	2	6	112	0.00	30.312 
14:25	14.3	14.3	14.3	45	-3.1	3	7	90	0.00	30.312 
14:30	14.1	14.1	14.1	45	-3.3	2	10	90	0.00	30.296 
14:35	14.1	14.1	14.1	45	-3.3	3	9	68	0.00	30.296 
14:40	14.3	14.3	14.3	45	-3.1	2	6	68	0.00	30.296 
14:45	14.1	14.1	14.1	44	-3.8	3	9	90	0.00	30.294 
14:50	14.0	14.0	14.0	45	-3.4	3	8	90	0.00	30.294 
14:55	14.1	14.1	14.1	44	-3.8	2	10	90	0.00	30.294 
15:00	14.3	14.3	14.3	45	-3.1	2	6	90	0.00	30.283 
15:05	14.4	14.4	14.4	45	-3.0	2	5	90	0.00	30.283 
15:10	14.4	7.7	14.4	43	-4.0	4	12	90	0.00	30.283 
15:15	14.3	14.3	14.3	43	-4.1	3	8	90	0.00	30.284 
15:20	14.4	14.4	14.4	45	-3.0	1	4	68	0.00	30.284 
15:25	14.4	14.4	14.4	44	-3.5	2	7	112	0.00	30.284 
15:30	14.1	14.1	14.1	44	-3.8	2	5	90	0.00	30.279 
15:35	14.0	14.0	14.0	44	-3.9	2	9	112	0.00	30.279 
15:40	14.1	14.1	14.1	44	-3.8	2	7	68	0.00	30.279 
15:45	14.1	14.1	14.1	44	-3.8	2	6	90	0.00	30.267 
15:50	14.3	14.3	14.3	45	-3.1	2	4	112	0.00	30.267 
15:55	14.4	14.4	14.4	44	-3.5	1	6	90	0.00	30.267 
16:00	14.8	14.8	14.8	45	-2.6	1	4	112	0.00	30.264 
16:05	14.9	14.9	14.9	45	-2.6	2	9	112	0.00	30.264 
16:10	14.9	14.9	14.9	44	-3.0	2	6	112	0.00	30.264 
16:15	14.8	14.8	14.8	44	-3.1	3	7	90	0.00	30.261 
16:20	14.8	14.8	14.8	44	-3.1	2	6	90	0.00	30.261 
16:25	14.8	14.8	14.8	44	-3.1	2	6	112	0.00	30.261 
16:30	14.8	14.8	14.8	43	-3.6	2	6	112	0.00	30.250 
16:35	14.6	14.6	14.6	44	-3.3	3	11	90	0.00	30.250 
16:40	14.6	14.6	14.6	44	-3.3	2	5	90	0.00	30.250 
16:45	14.8	14.8	14.8	44	-3.1	3	6	90	0.00	30.236 
16:50	14.8	14.8	14.8	44	-3.1	3	10	112	0.00	30.236 
16:55	14.9	14.9	14.9	43	-3.5	3	9	90	0.00	30.236 
17:00	14.9	14.9	14.9	44	-3.0	3	10	90	0.00	30.239 
17:05	14.9	14.9	14.9	44	-3.0	3	9	90	0.00	30.239 
17:10	14.8	14.8	14.8	44	-3.1	2	7	112	0.00	30.239 
17:15	14.9	14.9	14.9	45	-2.6	1	5	90	0.00	30.228 
17:20	14.9	14.9	14.9	46	-2.1	1	4	90	0.00	30.228 
17:25	15.1	15.1	15.1	47	-1.5	1	4	90	0.00	30.228 
17:30	15.2	15.2	15.2	47	-1.4	2	5	90	0.00	30.218 
17:35	15.1	15.1	15.1	47	-1.5	2	4	68	0.00	30.218 
17:40	15.1	15.1	15.1	46	-1.9	1	4	90	0.00	30.218 
17:45	15.1	15.1	15.1	45	-2.4	2	9	90	0.00	30.217 
17:50	15.1	15.1	15.1	46	-1.9	2	5	68	0.00	30.217 
17:55	14.9	14.9	14.9	45	-2.6	2	7	90	0.00	30.217 
18:00	14.8	14.8	14.8	45	-2.6	3	9	90	0.00	30.206 
18:05	14.8	14.8	14.8	46	-2.2	3	8	90	0.00	30.206 
18:10	14.6	14.6	14.6	46	-2.4	2	6	90	0.00	30.206 
18:15	14.6	14.6	14.6	46	-2.4	3	9	90	0.00	30.207 
18:20	14.6	14.6	14.6	46	-2.4	2	7	90	0.00	30.207 
18:25	14.6	14.6	14.6	46	-2.4	2	6	90	0.00	30.207 
18:30	14.8	14.8	14.8	48	-1.3	1	4	90	0.00	30.201 
18:35	14.8	14.8	14.8	48	-1.3	1	5	90	0.00	30.201 
18:40	14.8	14.8	14.8	49	-0.9	2	4	112	0.00	30.201 
18:45	14.9	14.9	14.9	49	-0.8	2	5	90	0.00	30.200 
18:50	14.9	14.9	14.9	49	-0.8	2	7	112	0.00	30.200 
18:55	14.9	14.9	14.9	49	-0.8	2	9	112	0.00	30.200 
19:00	14.9	14.9	14.9	48	-1.2	3	6	90	0.00	30.198 
19:05	15.1	15.1	15.1	49	-0.6	2	6	90	0.00	30.198 
19:10	15.1	15.1	15.1	49	-0.6	2	5	90	0.00	30.198 
19:15	15.1	15.1	15.1	49	-0.6	2	7	90	0.00	30.191 
19:20	15.1	15.1	15.1	48	-1.0	3	6	90	0.00	30.191 
19:25	15.1	15.1	15.1	47	-1.5	3	7	90	0.00	30.191 
19:30	15.1	15.1	15.1	47	-1.5	2	9	90	0.00	30.184 
19:35	15.1	15.1	15.1	49	-0.6	2	9	112	0.00	30.184 
19:40	14.9	14.9	14.9	49	-0.8	2	10	90	0.00	30.184 
19:45	14.9	14.9	14.9	49	-0.8	2	5	90	0.00	30.173 
19:50	14.9	14.9	14.9	49	-0.8	2	7	112	0.00	30.173 
19:55	14.9	14.9	14.9	49	-0.8	2	6	90	0.00	30.173 
20:00	14.9	14.9	14.9	49	-0.8	2	5	112	0.00	30.172 
20:05	14.9	14.9	14.9	48	-1.2	2	7	112	0.00	30.172 
20:10	14.9	14.9	14.9	49	-0.8	2	7	90	0.00	30.172 
20:15	14.9	14.9	14.9	49	-0.8	2	5	90	0.00	30.165 
20:20	14.9	14.9	14.9	48	-1.2	3	7	90	0.00	30.165 
20:25	14.9	14.9	14.9	50	-0.3	1	3	112	0.00	30.165 
20:30	14.9	14.9	14.9	50	-0.3	2	4	90	0.00	30.164 
20:35	14.9	14.9	14.9	50	-0.3	1	5	112	0.00	30.164 
20:40	14.9	14.9	14.9	51	0.1	0	4	90	0.00	30.164 
20:45	15.1	15.1	15.1	51	0.3	1	4	112	0.00	30.153 
20:50	15.1	15.1	15.1	50	-0.2	3	9	90	0.00	30.153 
20:55	15.1	15.1	15.1	50	-0.2	2	7	112	0.00	30.153 
21:00	15.2	15.2	15.2	50	-0.1	2	4	112	0.00	30.149 
21:05	15.2	15.2	15.2	50	-0.1	2	4	90	0.00	30.149 
21:10	15.2	15.2	15.2	50	-0.1	2	9	112	0.00	30.149 
21:15	15.2	15.2	15.2	50	-0.1	2	6	90	0.00	30.146 
21:20	15.4	15.4	15.4	49	-0.3	2	4	90	0.00	30.146 
21:25	15.4	15.4	15.4	49	-0.3	1	4	90	0.00	30.146 
21:30	15.4	15.4	15.4	49	-0.3	2	5	90	0.00	30.145 
21:35	15.6	15.6	15.6	49	-0.1	1	4	90	0.00	30.145 
21:40	15.6	15.6	15.6	49	-0.1	1	5	112	0.00	30.145 
21:45	15.7	15.7	15.7	48	-0.5	2	8	112	0.00	30.138 
21:50	15.7	15.7	15.7	47	-0.9	2	10	112	0.00	30.138 
21:55	15.7	15.7	15.7	47	-0.9	2	10	90	0.00	30.138 
22:00	15.9	15.9	15.9	47	-0.7	2	4	90	0.00	30.128 
22:05	15.9	15.9	15.9	47	-0.7	2	5	90	0.00	30.128 
22:10	15.9	15.9	15.9	47	-0.7	2	7	90	0.00	30.128 
22:15	16.1	16.1	16.1	48	-0.1	2	6	90	0.00	30.116 
22:20	16.1	16.1	16.1	48	-0.1	2	5	90	0.00	30.116 
22:25	16.1	16.1	16.1	48	-0.1	1	4	112	0.00	30.116 
22:30	16.1	16.1	16.1	48	-0.1	1	5	90	0.00	30.113 
22:35	16.2	16.2	16.2	48	-0.0	1	4	135	0.00	30.113 
22:40	16.2	16.2	16.2	47	-0.4	2	4	90	0.00	30.113 
22:45	16.4	16.4	16.4	47	-0.3	2	7	90	0.00	30.105 
22:50	16.4	16.4	16.4	47	-0.3	2	5	112	0.00	30.105 
22:55	16.5	16.5	16.5	48	0.3	2	5	112	0.00	30.105 
23:00	16.5	16.5	16.5	47	-0.2	1	5	112	0.00	30.094 
23:05	16.5	16.5	16.5	48	0.3	1	3	90	0.00	30.094 
23:10	16.7	16.7	16.7	48	0.5	1	5	90	0.00	30.094 
23:15	16.7	16.7	16.7	48	0.5	1	5	90	0.00	30.088 
23:20	16.9	16.9	16.9	48	0.6	2	7	90	0.00	30.088 
23:25	16.9	16.9	16.9	49	1.1	0	2	90	0.00	30.088 
23:30	16.9	16.9	16.9	49	1.1	0	2	90	0.00	30.094 
23:35	17.0	17.0	17.0	49	1.2	1	3	90	0.00	30.094 
23:40	17.0	17.0	17.0	49	1.2	1	4	90	0.00	30.094 
23:45	17.2	17.2	17.2	49	1.4	1	4	90	0.00	30.091 
23:50	17.2	17.2	17.2	49	1.4	1	3	90	0.00	30.091 
23:55	17.3	17.3	17.3	50	1.9	1	4	90	0.00	30.091 

CoCoRaHS
IN-AL-39
A2 Web Hosting
Creative Commons License
GoDaddy
search engine by freefind advanced

loaded 2018-11-15 14:00:40 • last modified 2010-11-18 10:43:29
Privacy PolicyDisclaimer
• wx.awcolley.com is powered by PmWiki v.2002016 •
• all content (unless otherwise noted) © 2018 A W Colley